createdAt,value
2023-08-05T00:02:03.777Z,10.40
2023-08-05T00:04:30.922Z,9.53
2023-08-05T00:06:57.920Z,10.70
2023-08-05T00:09:25.017Z,9.00
2023-08-05T00:11:51.998Z,12.57
2023-08-05T00:14:19.061Z,8.97
2023-08-05T00:16:46.118Z,10.43
2023-08-05T00:19:14.529Z,9.80
2023-08-05T00:21:42.291Z,10.60
2023-08-05T00:24:09.295Z,8.57
2023-08-05T00:26:36.455Z,10.87
2023-08-05T00:29:03.507Z,11.50
2023-08-05T00:31:31.051Z,11.63
2023-08-05T00:33:58.390Z,9.33
2023-08-05T00:36:25.679Z,8.13
2023-08-05T00:38:52.812Z,8.63
2023-08-05T00:41:20.232Z,8.57
2023-08-05T00:43:47.394Z,10.03
2023-08-05T00:46:15.290Z,9.50
2023-08-05T00:48:42.448Z,10.03
2023-08-05T00:51:10.047Z,9.27
2023-08-05T00:53:38.674Z,11.07
2023-08-05T00:56:05.926Z,11.83
2023-08-05T00:58:34.795Z,12.13
2023-08-05T01:01:02.692Z,10.23
2023-08-05T01:03:31.608Z,15.57
2023-08-05T01:06:00.894Z,12.80
2023-08-05T01:08:29.074Z,13.53
2023-08-05T01:10:56.157Z,13.40
2023-08-05T01:13:23.170Z,15.43
2023-08-05T01:15:50.212Z,13.13
2023-08-05T01:18:18.550Z,15.37
2023-08-05T01:20:49.727Z,13.97
2023-08-05T01:23:38.392Z,13.87
2023-08-05T01:26:06.550Z,15.43
2023-08-05T01:28:37.139Z,16.47
2023-08-05T01:31:05.865Z,14.47
2023-08-05T01:33:34.943Z,15.73
2023-08-05T01:36:04.598Z,12.20
2023-08-05T01:38:31.539Z,15.13
2023-08-05T01:40:59.373Z,12.37
2023-08-05T01:43:26.903Z,11.83
2023-08-05T01:45:54.155Z,8.27
2023-08-05T01:48:21.348Z,9.87
2023-08-05T01:50:49.027Z,8.93
2023-08-05T01:53:16.784Z,9.73
2023-08-05T01:55:43.931Z,13.67
2023-08-05T01:58:11.136Z,10.97
2023-08-05T02:00:38.256Z,11.90
2023-08-05T02:03:05.768Z,11.30
2023-08-05T02:05:32.984Z,12.27
2023-08-05T02:07:59.969Z,11.17
2023-08-05T02:10:27.093Z,9.27
2023-08-05T02:12:54.350Z,7.73
2023-08-05T02:15:21.614Z,8.77
2023-08-05T02:17:48.894Z,10.17
2023-08-05T02:20:17.308Z,8.63
2023-08-05T02:22:44.509Z,9.77
2023-08-05T02:25:12.134Z,8.67
2023-08-05T02:27:39.271Z,9.47
2023-08-05T02:30:07.401Z,8.80
2023-08-05T02:32:34.611Z,9.73
2023-08-05T02:35:01.879Z,7.57
2023-08-05T02:37:31.143Z,10.93
2023-08-05T02:39:58.483Z,10.23
2023-08-05T02:42:25.598Z,7.97
2023-08-05T02:44:52.657Z,9.63
2023-08-05T02:47:19.782Z,7.63
2023-08-05T02:49:46.881Z,8.37
2023-08-05T02:52:13.980Z,9.60
2023-08-05T02:54:41.100Z,9.73
2023-08-05T02:57:08.099Z,9.57
2023-08-05T02:59:35.182Z,9.17
2023-08-05T03:02:02.323Z,9.97
2023-08-05T03:04:29.443Z,12.10
2023-08-05T03:06:56.521Z,10.60
2023-08-05T03:09:23.588Z,10.73
2023-08-05T03:11:50.707Z,12.60
2023-08-05T03:14:17.914Z,14.67
2023-08-05T03:16:44.972Z,9.87
2023-08-05T03:19:17.982Z,8.67
2023-08-05T03:21:45.127Z,11.97
2023-08-05T03:24:12.914Z,10.90
2023-08-05T03:26:42.994Z,10.40
2023-08-05T03:29:12.069Z,13.50
2023-08-05T03:31:39.853Z,10.00
2023-08-05T03:34:08.204Z,12.83
2023-08-05T03:36:37.588Z,13.90
2023-08-05T03:39:06.161Z,14.87
2023-08-05T03:41:34.719Z,14.03
2023-08-05T03:44:05.578Z,14.57
2023-08-05T03:46:32.891Z,13.77
2023-08-05T03:49:01.736Z,17.30
2023-08-05T03:51:28.938Z,7.63
2023-08-05T03:53:57.556Z,10.43
2023-08-05T03:56:28.563Z,7.83
2023-08-05T03:58:58.443Z,11.63
2023-08-05T04:01:27.620Z,10.20
2023-08-05T04:03:55.870Z,10.33
2023-08-05T04:06:26.839Z,8.20
2023-08-05T04:08:55.416Z,10.50
2023-08-05T04:11:22.888Z,14.10
2023-08-05T04:13:54.124Z,11.30
2023-08-05T04:16:23.469Z,10.87
2023-08-05T04:18:50.868Z,11.17
2023-08-05T04:21:17.941Z,12.83
2023-08-05T04:23:48.306Z,9.93
2023-08-05T04:26:15.494Z,9.33
2023-08-05T04:28:42.579Z,11.60
2023-08-05T04:31:09.646Z,7.83
2023-08-05T04:33:36.718Z,10.87
2023-08-05T04:36:03.905Z,10.73
2023-08-05T04:38:31.021Z,13.73
2023-08-05T04:40:59.292Z,9.00
2023-08-05T04:43:26.611Z,8.20
2023-08-05T04:45:55.565Z,7.00
2023-08-05T04:48:22.896Z,5.47
2023-08-05T04:50:49.976Z,6.17
2023-08-05T04:53:17.362Z,8.73
2023-08-05T04:55:44.514Z,8.90
2023-08-05T04:58:12.510Z,5.00
2023-08-05T05:00:40.331Z,5.40
2023-08-05T05:03:09.116Z,5.43
2023-08-05T05:05:37.008Z,6.50
2023-08-05T05:08:04.625Z,6.93
2023-08-05T05:10:31.966Z,6.83
2023-08-05T05:12:59.499Z,7.40
2023-08-05T05:15:27.018Z,6.47
2023-08-05T05:17:54.741Z,6.30
2023-08-05T05:20:30.687Z,8.27
2023-08-05T05:22:58.128Z,6.70
2023-08-05T05:25:25.281Z,6.37
2023-08-05T05:27:52.361Z,7.80
2023-08-05T05:30:19.618Z,7.67
2023-08-05T05:32:46.765Z,10.83
2023-08-05T05:35:15.094Z,7.90
2023-08-05T05:37:42.563Z,9.07
2023-08-05T05:40:12.284Z,7.00
2023-08-05T05:42:40.834Z,8.13
2023-08-05T05:45:08.319Z,8.53
2023-08-05T05:47:37.053Z,8.13
2023-08-05T05:50:04.963Z,5.50
2023-08-05T05:52:32.069Z,5.13
2023-08-05T05:54:59.522Z,6.07
2023-08-05T05:57:27.377Z,6.70
2023-08-05T05:59:54.638Z,8.07
2023-08-05T06:02:21.809Z,7.00
2023-08-05T06:04:49.515Z,9.77
2023-08-05T06:07:16.945Z,6.63
2023-08-05T06:09:44.843Z,8.77
2023-08-05T06:12:12.166Z,9.27
2023-08-05T06:14:39.762Z,5.97
2023-08-05T06:17:06.941Z,7.13
2023-08-05T06:19:34.194Z,6.87
2023-08-05T07:15:49.072Z,8.63
2023-08-05T07:31:39.686Z,8.17
2023-08-05T07:34:09.314Z,7.23
2023-08-05T07:36:37.912Z,6.50
2023-08-05T07:39:07.557Z,5.13
2023-08-05T07:41:34.929Z,8.43
2023-08-05T07:44:02.972Z,11.10
2023-08-05T07:46:37.251Z,7.00
2023-08-05T07:49:05.670Z,5.93
2023-08-05T07:51:32.788Z,7.80
2023-08-05T07:54:00.678Z,5.97
2023-08-05T07:56:27.919Z,7.33
2023-08-05T07:58:55.069Z,7.67
2023-08-05T08:01:24.079Z,8.80
2023-08-05T08:27:21.058Z,7.67
2023-08-05T08:29:48.196Z,7.30
2023-08-05T08:32:15.239Z,6.57
2023-08-05T09:35:00.578Z,5.87
2023-08-05T09:37:27.623Z,7.10
2023-08-05T09:39:54.591Z,6.80
2023-08-05T09:42:27.073Z,5.63
2023-08-05T09:44:58.938Z,4.00
2023-08-05T09:47:31.687Z,4.85
2023-08-05T09:50:06.389Z,5.47
2023-08-05T09:52:34.568Z,4.75
2023-08-05T09:55:08.823Z,6.18
2023-08-05T09:57:36.057Z,6.43
2023-08-05T10:00:09.212Z,4.57
2023-08-05T10:02:36.910Z,3.97
2023-08-05T10:05:04.407Z,3.85
2023-08-05T10:07:31.586Z,4.47
2023-08-05T10:10:00.136Z,4.95
2023-08-05T10:12:32.114Z,5.07
2023-08-05T10:15:01.426Z,3.13
2023-08-05T10:17:29.391Z,4.80
2023-08-05T10:19:56.593Z,3.28
2023-08-05T10:22:25.473Z,4.70
2023-08-05T11:00:57.355Z,4.40
2023-08-05T11:03:46.956Z,2.78
2023-08-05T11:06:15.799Z,3.17
2023-08-05T11:08:43.719Z,2.67
2023-08-05T11:11:15.383Z,3.85
2023-08-05T11:13:45.737Z,4.45
2023-08-05T11:16:16.308Z,6.38
2023-08-05T11:18:45.216Z,4.20
2023-08-05T11:21:19.068Z,3.92
2023-08-05T11:23:47.164Z,4.10
2023-08-05T11:26:14.850Z,4.78
2023-08-05T11:28:48.406Z,6.28
2023-08-05T11:31:28.063Z,6.40
2023-08-05T11:33:55.864Z,7.28
2023-08-05T11:36:27.132Z,4.18
2023-08-05T11:38:58.538Z,7.18
2023-08-05T11:41:27.144Z,4.05
2023-08-05T11:43:55.828Z,3.53
2023-08-05T11:46:40.915Z,8.02
2023-08-05T11:49:16.698Z,6.13
2023-08-05T11:51:52.486Z,5.35
2023-08-05T11:54:30.880Z,5.32
2023-08-05T11:56:58.961Z,5.53
2023-08-05T11:59:49.227Z,3.03
2023-08-05T12:02:19.108Z,5.55
2023-08-05T12:04:48.864Z,5.57
2023-08-05T12:07:21.060Z,2.90
2023-08-05T12:10:11.139Z,4.78
2023-08-05T12:12:43.029Z,5.38
2023-08-05T12:15:13.215Z,4.00
2023-08-05T12:17:45.303Z,3.03
2023-08-05T12:20:12.528Z,5.07
2023-08-05T12:22:39.495Z,4.95
2023-08-05T12:25:07.080Z,4.25
2023-08-05T12:27:34.246Z,5.88
2023-08-05T12:30:01.426Z,5.38
2023-08-05T12:32:29.465Z,4.97
2023-08-05T12:34:56.458Z,4.95
2023-08-05T12:37:23.510Z,8.57
2023-08-05T12:39:50.500Z,3.50
2023-08-05T12:42:17.620Z,3.92
2023-08-05T12:44:44.721Z,4.68
2023-08-05T12:47:11.803Z,5.72
2023-08-05T12:49:40.113Z,4.80
2023-08-05T12:52:07.808Z,7.18
2023-08-05T12:54:34.897Z,4.25
2023-08-05T12:57:02.131Z,5.75
2023-08-05T12:59:29.267Z,6.78
2023-08-05T13:01:56.311Z,6.28
2023-08-05T13:04:23.427Z,5.00
2023-08-05T13:06:50.545Z,3.45
2023-08-05T13:09:19.308Z,5.22
2023-08-05T13:11:46.890Z,6.22
2023-08-05T13:14:14.571Z,6.38
2023-08-05T13:16:42.256Z,5.03
2023-08-05T13:19:09.663Z,3.85
2023-08-05T13:21:37.640Z,5.25
2023-08-05T13:24:04.845Z,11.23
2023-08-05T13:26:32.024Z,5.57
2023-08-05T13:28:59.170Z,4.03
2023-08-05T13:31:26.429Z,5.45
2023-08-05T13:33:54.009Z,7.30
2023-08-05T13:36:21.668Z,10.90
2023-08-05T13:38:50.067Z,4.80
2023-08-05T13:41:17.871Z,6.93
2023-08-05T13:43:45.003Z,5.45
2023-08-05T13:46:12.403Z,6.63
2023-08-05T13:48:39.880Z,6.25
2023-08-05T13:51:09.095Z,2.92
2023-08-05T13:53:37.179Z,4.85
2023-08-05T13:56:05.201Z,2.90
2023-08-05T13:58:32.816Z,4.20
2023-08-05T14:01:02.690Z,3.90
2023-08-05T14:03:30.115Z,5.88
2023-08-05T14:05:58.902Z,3.38
2023-08-05T14:08:30.545Z,5.65
2023-08-05T14:10:57.624Z,4.68
2023-08-05T14:13:24.760Z,4.72
2023-08-05T14:15:53.565Z,3.08
2023-08-05T14:18:21.718Z,6.03
2023-08-05T14:20:49.299Z,4.00
2023-08-05T14:23:16.849Z,5.78
2023-08-05T14:25:46.846Z,3.28
2023-08-05T14:28:14.178Z,4.60
2023-08-05T14:30:42.221Z,4.07
2023-08-05T14:33:09.770Z,6.53
2023-08-05T14:35:37.354Z,7.45
2023-08-05T14:38:05.331Z,3.38
2023-08-05T14:40:34.778Z,3.25
2023-08-05T14:43:03.003Z,5.97
2023-08-05T14:45:31.008Z,5.28
2023-08-05T14:47:59.111Z,4.38
2023-08-05T14:50:26.406Z,5.10
2023-08-05T14:52:53.444Z,5.15
2023-08-05T14:55:20.712Z,5.13
2023-08-05T14:57:49.209Z,4.38
2023-08-05T15:00:16.927Z,4.75
2023-08-05T15:02:44.060Z,5.22
2023-08-05T15:05:11.214Z,5.00
2023-08-05T15:07:38.226Z,8.95
2023-08-05T15:10:05.786Z,2.47
2023-08-05T15:12:33.171Z,3.70
2023-08-05T15:15:00.225Z,5.22
2023-08-05T15:17:27.692Z,3.10
2023-08-05T15:19:55.129Z,5.78
2023-08-05T15:22:22.541Z,5.13
2023-08-05T15:24:49.511Z,3.53
2023-08-05T15:27:16.510Z,4.15
2023-08-05T15:29:43.634Z,3.90
2023-08-05T15:32:11.063Z,5.20
2023-08-05T15:34:40.019Z,3.95
2023-08-05T15:37:07.374Z,3.45
2023-08-05T15:39:34.538Z,5.28
2023-08-05T15:42:02.739Z,3.90
2023-08-05T15:44:35.263Z,3.10
2023-08-05T15:47:05.507Z,4.97
2023-08-05T15:49:32.621Z,4.60
2023-08-05T15:51:59.600Z,8.55
2023-08-05T15:54:27.423Z,4.93
2023-08-05T15:56:54.398Z,6.28
2023-08-05T15:59:21.545Z,5.22
2023-08-05T16:01:48.610Z,4.53
2023-08-05T16:04:15.689Z,7.60
2023-08-05T16:06:44.342Z,5.30
2023-08-05T16:09:11.790Z,3.97
2023-08-05T16:11:38.856Z,7.63
2023-08-05T16:14:05.887Z,6.65
2023-08-05T16:16:34.191Z,5.60
2023-08-05T16:19:02.074Z,6.05
2023-08-05T16:21:29.485Z,4.75
2023-08-05T16:23:58.136Z,6.80
2023-08-05T16:26:27.260Z,8.32
2023-08-05T16:28:54.740Z,5.22
2023-08-05T16:31:23.702Z,4.47
2023-08-05T16:33:51.043Z,6.68
2023-08-05T16:36:18.173Z,5.78
2023-08-05T16:38:45.598Z,4.70
2023-08-05T16:41:13.218Z,7.90
2023-08-05T16:43:40.862Z,6.78
2023-08-05T16:46:08.621Z,6.93
2023-08-05T16:48:36.102Z,5.60
2023-08-05T16:51:06.688Z,5.45
2023-08-05T16:53:34.490Z,6.18
2023-08-05T16:56:05.841Z,4.20
2023-08-05T16:58:32.892Z,4.37
2023-08-05T17:01:00.054Z,5.20
2023-08-05T17:03:27.021Z,6.50
2023-08-05T17:05:54.085Z,3.13
2023-08-05T17:08:21.828Z,4.57
2023-08-05T17:10:48.982Z,4.87
2023-08-05T17:13:16.029Z,6.27
2023-08-05T17:15:47.102Z,4.47
2023-08-05T17:18:14.914Z,9.93
2023-08-05T17:20:42.973Z,5.67
2023-08-05T17:23:10.405Z,6.23
2023-08-05T17:25:41.811Z,4.33
2023-08-05T17:28:09.640Z,5.87
2023-08-05T17:30:37.681Z,7.57
2023-08-05T17:33:05.804Z,4.10
2023-08-05T17:35:34.539Z,6.30
2023-08-05T17:38:03.169Z,6.80
2023-08-05T17:40:31.190Z,10.47
2023-08-05T17:42:59.342Z,8.10
2023-08-05T17:45:26.425Z,6.33
2023-08-05T17:47:53.568Z,6.50
2023-08-05T17:50:20.648Z,6.43
2023-08-05T17:52:47.657Z,5.53
2023-08-05T17:55:14.835Z,11.60
2023-08-05T17:57:42.009Z,7.30
2023-08-05T18:00:09.741Z,4.37
2023-08-05T18:02:37.178Z,7.63
2023-08-05T18:05:04.673Z,6.67
2023-08-05T18:07:31.885Z,7.70
2023-08-05T18:09:59.685Z,7.00
2023-08-05T18:12:26.876Z,4.30
2023-08-05T18:14:53.908Z,8.33
2023-08-05T18:17:20.909Z,11.97
2023-08-05T18:19:48.007Z,6.30
2023-08-05T18:22:15.006Z,12.33
2023-08-05T18:24:42.282Z,7.53
2023-08-05T18:27:09.349Z,4.83
2023-08-05T18:29:36.580Z,6.30
2023-08-05T18:32:04.037Z,4.50
2023-08-05T18:34:31.193Z,7.97
2023-08-05T18:36:58.411Z,6.17
2023-08-05T18:39:25.806Z,6.10
2023-08-05T18:41:53.032Z,5.23
2023-08-05T18:44:20.310Z,3.93
2023-08-05T18:46:47.481Z,6.17
2023-08-05T18:49:14.647Z,6.73
2023-08-05T18:51:41.677Z,4.73
2023-08-05T18:54:09.235Z,4.43
2023-08-05T18:56:36.678Z,4.30
2023-08-05T18:59:03.803Z,4.50
2023-08-05T19:01:31.112Z,4.37
2023-08-05T19:03:58.277Z,6.43
2023-08-05T19:06:25.401Z,4.13
2023-08-05T19:08:52.368Z,5.33
2023-08-05T19:11:19.440Z,6.40
2023-08-05T19:13:46.531Z,3.77
2023-08-05T19:16:13.707Z,5.70
2023-08-05T19:18:41.403Z,4.03
2023-08-05T19:21:09.521Z,6.07
2023-08-05T19:23:37.623Z,7.10
2023-08-05T19:26:08.723Z,8.27
2023-08-05T19:28:35.812Z,5.93
2023-08-05T19:31:07.492Z,5.53
2023-08-05T19:33:35.531Z,6.80
2023-08-05T19:36:16.875Z,5.60
2023-08-05T19:38:45.404Z,6.80
2023-08-05T19:41:12.751Z,9.53
2023-08-05T19:43:41.182Z,9.90
2023-08-05T19:46:10.723Z,6.27
2023-08-05T19:48:38.721Z,9.73
2023-08-05T19:53:37.697Z,6.30
2023-08-05T19:56:04.886Z,5.90
2023-08-05T19:58:32.094Z,7.83
2023-08-05T20:00:59.272Z,9.87
2023-08-05T20:03:26.522Z,7.30
2023-08-05T20:05:55.127Z,4.63
2023-08-05T20:08:24.045Z,7.33
2023-08-05T20:10:51.191Z,8.27
2023-08-05T20:13:18.465Z,7.77
2023-08-05T20:15:45.576Z,7.10
2023-08-05T20:18:12.995Z,4.73
2023-08-05T20:20:40.086Z,6.40
2023-08-05T20:23:07.204Z,10.07
2023-08-05T20:25:35.945Z,9.47
2023-08-05T20:28:03.417Z,7.27
2023-08-05T20:30:30.553Z,7.93
2023-08-05T20:32:57.632Z,5.83
2023-08-05T20:35:24.709Z,9.00
2023-08-05T20:37:51.818Z,6.87
2023-08-05T20:40:18.985Z,7.80
2023-08-05T20:42:46.726Z,6.10
2023-08-05T20:45:13.789Z,7.70
2023-08-05T20:47:40.948Z,9.13
2023-08-05T20:50:10.620Z,10.37
2023-08-05T20:52:37.590Z,9.23
2023-08-05T20:55:05.112Z,6.67
2023-08-05T20:57:32.307Z,10.30
2023-08-05T20:59:59.423Z,8.93
2023-08-05T21:02:26.653Z,8.60
2023-08-05T21:04:56.221Z,7.37
2023-08-05T21:07:23.224Z,7.67
2023-08-05T21:09:50.358Z,10.17
2023-08-05T21:12:18.751Z,6.57
2023-08-05T21:14:45.950Z,9.67
2023-08-05T21:17:13.250Z,7.17
2023-08-05T21:19:40.357Z,9.57
2023-08-05T21:22:07.581Z,8.43
2023-08-05T21:24:35.918Z,6.77
2023-08-05T21:27:03.384Z,7.03
2023-08-05T21:29:31.657Z,12.07
2023-08-05T21:31:58.829Z,9.80
2023-08-05T21:34:25.842Z,8.33
2023-08-05T21:36:52.928Z,8.70
2023-08-05T21:39:20.068Z,9.87
2023-08-05T21:41:47.092Z,8.97
2023-08-05T21:44:14.131Z,7.27
2023-08-05T21:46:41.425Z,6.70
2023-08-05T21:49:08.618Z,7.43
2023-08-05T21:51:35.659Z,10.87
2023-08-05T21:54:04.762Z,10.17
2023-08-05T21:56:32.351Z,8.47
2023-08-05T21:58:59.332Z,8.90
2023-08-05T22:01:28.866Z,10.17
2023-08-05T22:03:55.913Z,10.33
2023-08-05T22:06:22.993Z,7.83
2023-08-05T22:08:50.240Z,7.07
2023-08-05T22:11:17.300Z,11.27
2023-08-05T22:13:44.477Z,8.73
2023-08-05T22:16:11.666Z,9.93
2023-08-05T22:18:39.001Z,9.87
2023-08-05T22:21:06.296Z,7.70
2023-08-05T22:23:33.450Z,11.83
2023-08-05T22:26:06.491Z,8.00
2023-08-05T22:28:33.797Z,9.97
2023-08-05T22:31:00.979Z,9.77
2023-08-05T22:33:28.068Z,12.17
2023-08-05T22:35:55.081Z,16.70
2023-08-05T22:38:22.315Z,8.20
2023-08-05T22:40:49.504Z,8.33
2023-08-05T22:43:16.622Z,9.43
2023-08-05T22:45:43.676Z,12.03
2023-08-05T22:48:10.795Z,10.70
2023-08-05T22:50:43.686Z,10.20
2023-08-05T22:53:10.655Z,10.67
2023-08-05T22:55:37.733Z,9.87
2023-08-05T22:58:04.886Z,9.33
2023-08-05T23:00:32.021Z,9.57
2023-08-05T23:02:59.248Z,12.80
2023-08-05T23:05:26.456Z,12.83
2023-08-05T23:07:53.684Z,12.03
2023-08-05T23:10:20.802Z,9.63
2023-08-05T23:12:47.855Z,11.30
2023-08-05T23:15:15.110Z,12.43
2023-08-05T23:17:43.770Z,10.60
2023-08-05T23:20:11.195Z,9.50
2023-08-05T23:22:38.536Z,9.47
2023-08-05T23:25:06.160Z,11.93
2023-08-05T23:27:33.179Z,10.27
2023-08-05T23:30:00.278Z,11.77
2023-08-05T23:32:27.440Z,11.07
2023-08-05T23:34:54.574Z,10.20
2023-08-05T23:37:21.670Z,9.97
2023-08-05T23:39:48.842Z,8.57
2023-08-05T23:42:16.099Z,9.33
2023-08-05T23:44:43.218Z,8.37
2023-08-05T23:47:10.275Z,11.30
2023-08-05T23:49:37.374Z,7.93
2023-08-05T23:52:04.936Z,11.77
2023-08-05T23:54:31.884Z,8.63
2023-08-05T23:56:59.041Z,8.60
2023-08-05T23:59:25.984Z,13.77
